Time;durP1;ratioP1;P1;durP2;ratioP2;P2;SDS_P1;SDS_P2;PMS_P1;PMS_P2;Temp;Humidity;BMP_temperature;BMP_pressure;BME280_temperature;BME280_humidity;BME280_pressure;Samples;Min_cycle;Max_cycle;Signal;HPM_P1;HPM_P2
2022/12/20 00:01:00;;;;;;;16.50;5.53;;;28.00;84.80;;;;;;5127155;28;20063;-55
2022/12/20 00:03:26;;;;;;;13.65;5.60;;;28.00;84.80;;;;;;5127289;28;20027;-57
2022/12/20 00:05:53;;;;;;;17.65;5.68;;;28.00;84.90;;;;;;5108543;28;20215;-53
2022/12/20 00:08:20;;;;;;;15.82;6.13;;;28.00;84.90;;;;;;5126843;28;20051;-53
2022/12/20 00:10:47;;;;;;;16.10;5.43;;;28.00;85.00;;;;;;5126524;28;20338;-57
2022/12/20 00:13:13;;;;;;;17.92;5.55;;;28.00;85.00;;;;;;5126418;28;20024;-55
2022/12/20 00:15:40;;;;;;;23.33;5.88;;;28.00;85.10;;;;;;5126666;28;20055;-56
2022/12/20 00:18:06;;;;;;;21.35;5.60;;;28.00;85.10;;;;;;5126403;28;20019;-56
2022/12/20 00:20:34;;;;;;;21.40;5.45;;;28.00;85.20;;;;;;5126465;28;20031;-57
2022/12/20 00:23:01;;;;;;;22.50;6.05;;;28.00;85.20;;;;;;5126717;28;20037;-56
2022/12/20 00:25:28;;;;;;;19.25;6.28;;;28.00;85.10;;;;;;5126500;28;20031;-56
2022/12/20 00:27:54;;;;;;;25.42;6.00;;;28.00;85.10;;;;;;5126411;28;20032;-55
2022/12/20 00:30:21;;;;;;;18.33;5.82;;;28.00;85.10;;;;;;5126222;28;20316;-54
2022/12/20 00:32:47;;;;;;;22.95;5.95;;;28.00;85.20;;;;;;5126139;28;20024;-56
2022/12/20 00:35:14;;;;;;;14.98;5.75;;;28.00;85.20;;;;;;5125674;28;20015;-55
2022/12/20 00:37:40;;;;;;;25.80;6.13;;;28.00;85.20;;;;;;5126418;28;20019;-56
2022/12/20 00:40:08;;;;;;;26.58;6.13;;;28.00;85.20;;;;;;5125649;28;20035;-55
2022/12/20 00:42:34;;;;;;;18.27;5.80;;;28.00;85.20;;;;;;5126015;28;20204;-55
2022/12/20 00:45:01;;;;;;;24.67;5.75;;;28.00;85.30;;;;;;5126159;28;20241;-61
2022/12/20 00:47:27;;;;;;;24.15;5.68;;;27.90;85.30;;;;;;5125714;28;20046;-55
2022/12/20 00:49:54;;;;;;;28.98;5.75;;;27.90;85.30;;;;;;5125715;28;20220;-54
2022/12/20 00:52:21;;;;;;;17.73;5.13;;;27.90;85.40;;;;;;5125733;28;20060;-56
2022/12/20 00:54:47;;;;;;;24.58;5.85;;;27.90;85.40;;;;;;5125705;28;20028;-54
2022/12/20 00:57:14;;;;;;;20.48;6.10;;;27.90;85.40;;;;;;5125718;28;20089;-57
2022/12/20 00:59:40;;;;;;;25.33;6.82;;;27.90;85.40;;;;;;5125712;28;20024;-59
2022/12/20 01:02:07;;;;;;;25.80;6.07;;;27.90;85.50;;;;;;5125971;28;20080;-57
2022/12/20 01:04:33;;;;;;;27.15;6.85;;;27.90;85.60;;;;;;5125515;28;20079;-55
2022/12/20 01:07:01;;;;;;;19.45;6.18;;;27.90;85.60;;;;;;5125421;28;20103;-56
2022/12/20 01:09:28;;;;;;;18.33;7.13;;;27.90;85.70;;;;;;5125444;28;20090;-56
2022/12/20 01:11:54;;;;;;;23.83;7.38;;;27.90;85.70;;;;;;5125320;28;20161;-57
2022/12/20 01:14:21;;;;;;;24.33;7.10;;;27.90;85.60;;;;;;5125311;28;20034;-57
2022/12/20 01:16:49;;;;;;;52.08;8.45;;;27.90;85.70;;;;;;5125706;28;20027;-57
2022/12/20 01:19:19;;;;;;;24.90;6.70;;;27.90;85.80;;;;;;5125328;28;20215;-57
2022/12/20 01:21:46;;;;;;;24.98;6.93;;;27.90;86.40;;;;;;5125295;28;20087;-57
2022/12/20 01:24:15;;;;;;;24.35;6.53;;;27.90;86.00;;;;;;5125355;28;20023;-55
2022/12/20 01:26:42;;;;;;;28.25;6.90;;;27.80;86.00;;;;;;5125177;28;20031;-54
2022/12/20 01:29:10;;;;;;;19.48;6.70;;;27.90;86.10;;;;;;5124907;28;20042;-56
2022/12/20 01:31:37;;;;;;;25.48;7.72;;;27.80;86.10;;;;;;5106659;28;20020;-57
2022/12/20 01:34:04;;;;;;;25.98;7.20;;;27.80;86.10;;;;;;5125137;28;20027;-55
2022/12/20 01:36:36;;;;;;;27.02;6.88;;;27.80;86.10;;;;;;5124826;28;20011;-58
2022/12/20 01:39:03;;;;;;;22.00;6.65;;;27.80;86.10;;;;;;5125018;28;20071;-56
2022/12/20 01:41:32;;;;;;;17.00;6.20;;;27.80;86.10;;;;;;5124862;28;20020;-56
2022/12/20 01:44:25;;;;;;;32.92;7.10;;;27.80;86.10;;;;;;5124979;28;20285;-57
2022/12/20 01:46:53;;;;;;;24.02;6.50;;;27.80;86.00;;;;;;5125030;28;20072;-57
2022/12/20 01:49:49;;;;;;;29.15;6.82;;;27.80;85.90;;;;;;5124534;28;20124;-58
2022/12/20 01:52:28;;;;;;;19.02;6.22;;;27.80;85.80;;;;;;5124199;28;20035;-61
2022/12/20 01:55:25;;;;;;;24.15;7.10;;;27.80;85.80;;;;;;5124746;28;20023;-55
2022/12/20 01:57:57;;;;;;;27.92;10.38;;;27.80;85.70;;;;;;5124566;28;20316;-57
2022/12/20 02:00:24;;;;;;;31.48;16.35;;;27.80;85.60;;;;;;5124227;28;20036;-55
2022/12/20 02:02:50;;;;;;;34.83;18.95;;;27.80;85.40;;;;;;5124856;28;20234;-57
2022/12/20 02:05:19;;;;;;;37.65;16.40;;;27.80;85.30;;;;;;5124648;28;20219;-55
2022/12/20 02:07:49;;;;;;;28.20;15.00;;;27.80;85.20;;;;;;5124972;28;20024;-57
2022/12/20 02:10:16;;;;;;;45.15;17.65;;;27.80;85.10;;;;;;5112823;28;20203;-56
2022/12/20 02:12:46;;;;;;;58.47;19.67;;;27.70;85.00;;;;;;5129806;28;20056;-55
2022/12/20 02:15:36;;;;;;;38.13;16.63;;;27.60;84.90;;;;;;5133755;28;20031;-53
2022/12/20 02:18:19;;;;;;;40.20;13.02;;;27.60;85.30;;;;;;5123971;28;20300;-53
2022/12/20 02:21:10;;;;;;;26.52;9.60;;;27.50;85.50;;;;;;5124234;28;20039;-54
2022/12/20 02:23:55;;;;;;;25.05;9.05;;;27.40;85.90;;;;;;5121571;28;20008;-50
2022/12/20 02:27:05;;;;;;;29.90;8.38;;;27.40;86.20;;;;;;5123170;28;20167;-54
2022/12/20 02:29:53;;;;;;;34.22;7.65;;;27.30;86.40;;;;;;5049257;28;20064;-53
2022/12/20 02:32:22;;;;;;;46.63;8.05;;;27.30;86.70;;;;;;5122696;28;20300;-57
2022/12/20 02:34:50;;;;;;;29.83;7.18;;;27.30;87.20;;;;;;5122513;28;20027;-55
2022/12/20 02:37:16;;;;;;;22.70;7.53;;;27.20;87.30;;;;;;5121812;28;20024;-53
2022/12/20 02:39:45;;;;;;;27.20;7.15;;;27.20;87.50;;;;;;5112530;28;20095;-54
2022/12/20 02:42:19;;;;;;;31.27;7.63;;;27.10;87.80;;;;;;5103795;28;20024;-55
2022/12/20 02:45:15;;;;;;;34.45;7.53;;;27.10;87.80;;;;;;5105961;28;20023;-53
2022/12/20 02:47:42;;;;;;;19.17;6.75;;;27.10;88.00;;;;;;5104068;28;20108;-55
2022/12/20 02:50:09;;;;;;;17.75;7.22;;;27.10;88.40;;;;;;5104075;28;20043;-54
2022/12/20 02:52:37;;;;;;;23.90;7.25;;;27.00;88.00;;;;;;5122591;28;20076;-55
2022/12/20 02:55:05;;;;;;;18.75;6.85;;;26.90;87.90;;;;;;5122480;28;20062;-55
2022/12/20 02:57:43;;;;;;;16.30;6.70;;;26.90;87.80;;;;;;5120792;28;20302;-55
2022/12/20 03:00:17;;;;;;;23.95;6.95;;;26.90;87.40;;;;;;5119070;28;20027;-56
2022/12/20 03:05:34;;;;;;;13.68;5.70;;;26.80;87.70;;;;;;5125463;28;20076;-57
2022/12/20 03:08:01;;;;;;;25.63;5.97;;;26.80;87.80;;;;;;5126585;28;20023;-57
2022/12/20 03:10:27;;;;;;;15.95;5.43;;;26.80;87.80;;;;;;5133974;27;20253;-54
2022/12/20 03:12:54;;;;;;;15.48;5.68;;;26.70;87.80;;;;;;5126963;28;20019;-54
2022/12/20 03:15:20;;;;;;;14.50;5.72;;;26.70;87.90;;;;;;5126474;28;20315;-55
2022/12/20 03:17:47;;;;;;;13.63;5.72;;;26.70;87.70;;;;;;5127464;28;20024;-58
2022/12/20 03:20:13;;;;;;;16.27;5.75;;;26.80;87.90;;;;;;5138896;27;20035;-55
2022/12/20 03:22:40;;;;;;;14.90;5.30;;;26.90;87.70;;;;;;5130559;27;20204;-56
2022/12/20 03:25:08;;;;;;;15.05;5.97;;;26.90;87.70;;;;;;5126800;28;20026;-57
2022/12/20 03:27:34;;;;;;;12.70;5.97;;;27.00;87.70;;;;;;5126469;28;20027;-55
2022/12/20 03:30:01;;;;;;;13.40;5.57;;;27.10;87.60;;;;;;5126590;28;20337;-58
2022/12/20 03:32:27;;;;;;;11.48;5.78;;;27.10;87.60;;;;;;5122942;28;20199;-56
2022/12/20 03:34:55;;;;;;;13.32;5.47;;;27.20;87.50;;;;;;5126031;27;20376;-59
2022/12/20 03:37:22;;;;;;;17.95;6.00;;;27.20;87.60;;;;;;5125824;28;20065;-58
2022/12/20 03:39:49;;;;;;;12.95;5.25;;;27.20;87.60;;;;;;5126939;28;20042;-57
2022/12/20 03:42:16;;;;;;;12.40;5.57;;;27.20;87.60;;;;;;5128697;27;20181;-58
2022/12/20 03:44:42;;;;;;;14.95;6.00;;;27.30;87.70;;;;;;5142714;27;20072;-57
2022/12/20 03:47:09;;;;;;;10.38;5.45;;;27.30;87.70;;;;;;5135583;27;20020;-57
2022/12/20 03:49:35;;;;;;;11.82;5.70;;;27.30;87.70;;;;;;5126490;28;20055;-57
2022/12/20 03:52:02;;;;;;;13.15;5.50;;;27.30;87.60;;;;;;5124544;28;20184;-53
2022/12/20 03:54:28;;;;;;;10.10;4.85;;;27.30;87.50;;;;;;5125016;28;20099;-57
2022/12/20 03:56:55;;;;;;;14.85;5.40;;;27.30;87.50;;;;;;5115968;28;20032;-55
2022/12/20 03:59:21;;;;;;;10.07;5.15;;;27.30;87.40;;;;;;5099542;28;20031;-56
2022/12/20 04:01:48;;;;;;;9.02;4.90;;;27.30;87.20;;;;;;5126498;27;20023;-59
2022/12/20 04:04:15;;;;;;;10.98;5.03;;;27.30;87.20;;;;;;5126797;28;20040;-56
2022/12/20 04:06:42;;;;;;;10.95;5.13;;;27.30;87.10;;;;;;5135871;27;20099;-58
2022/12/20 04:09:09;;;;;;;13.00;4.80;;;27.30;87.10;;;;;;5143485;27;20232;-55
2022/12/20 04:11:35;;;;;;;10.90;4.88;;;27.30;87.00;;;;;;5135128;27;20034;-54
2022/12/20 04:14:02;;;;;;;9.77;5.25;;;27.30;87.00;;;;;;5122287;27;20068;-56
2022/12/20 04:16:29;;;;;;;13.10;5.30;;;27.30;87.00;;;;;;5146265;27;20058;-55
2022/12/20 04:18:56;;;;;;;13.10;4.85;;;27.30;87.00;;;;;;5147498;27;20212;-55
2022/12/20 04:21:32;;;;;;;10.50;5.00;;;27.30;87.10;;;;;;5146952;27;20031;-56
2022/12/20 04:24:00;;;;;;;10.23;5.40;;;27.30;87.20;;;;;;5147376;27;20064;-57
2022/12/20 04:26:27;;;;;;;11.18;5.20;;;27.30;87.30;;;;;;5146944;27;20023;-55
2022/12/20 04:28:53;;;;;;;8.90;5.78;;;27.30;87.50;;;;;;5147070;27;20057;-57
2022/12/20 04:31:20;;;;;;;12.10;5.45;;;27.30;87.60;;;;;;5146777;27;20239;-56
2022/12/20 04:33:47;;;;;;;7.95;5.55;;;27.30;87.70;;;;;;5127935;27;20055;-60
2022/12/20 04:36:15;;;;;;;10.25;5.47;;;27.30;87.60;;;;;;5126160;28;20059;-54
2022/12/20 04:38:41;;;;;;;13.10;5.32;;;27.30;87.60;;;;;;5126501;28;20177;-58
2022/12/20 04:41:08;;;;;;;10.27;4.97;;;27.30;87.60;;;;;;5125940;28;20019;-59
2022/12/20 04:43:34;;;;;;;10.48;4.97;;;27.30;87.60;;;;;;5124805;28;20031;-54
2022/12/20 04:46:01;;;;;;;8.57;4.85;;;27.30;87.70;;;;;;5123454;28;20028;-54
2022/12/20 04:48:28;;;;;;;8.65;4.30;;;27.30;87.70;;;;;;5125712;28;20362;-55
2022/12/20 04:50:56;;;;;;;9.63;4.82;;;27.30;87.70;;;;;;5125713;28;20300;-57
2022/12/20 04:56:08;;;;;;;10.70;4.97;;;27.30;87.80;;;;;;5125678;28;20366;-54
2022/12/20 04:58:35;;;;;;;8.02;4.70;;;27.30;87.70;;;;;;5125900;28;20039;-54
2022/12/20 05:01:03;;;;;;;9.88;4.70;;;27.30;87.70;;;;;;5107421;28;20378;-55
2022/12/20 05:03:29;;;;;;;9.43;4.82;;;27.30;87.70;;;;;;5126036;28;20028;-55
2022/12/20 05:05:56;;;;;;;14.73;5.35;;;27.30;87.60;;;;;;5125353;28;20060;-56
2022/12/20 05:08:23;;;;;;;10.48;4.88;;;27.30;87.60;;;;;;5125167;27;20027;-55
2022/12/20 05:10:50;;;;;;;9.55;5.03;;;27.20;87.50;;;;;;5125307;28;20023;-57
2022/12/20 05:13:17;;;;;;;11.90;5.15;;;27.20;87.40;;;;;;5125556;28;20019;-55
2022/12/20 05:15:43;;;;;;;10.98;4.75;;;27.20;87.40;;;;;;5125346;28;20323;-57
2022/12/20 05:18:10;;;;;;;9.98;4.95;;;27.20;87.50;;;;;;5124892;28;20258;-58
2022/12/20 05:20:36;;;;;;;7.72;4.53;;;27.20;87.50;;;;;;5124611;28;20035;-54
2022/12/20 05:28:35;;;;;;;7.65;5.03;;;27.20;87.50;;;;;;5125186;28;20026;-56
2022/12/20 05:31:02;;;;;;;8.52;5.00;;;27.20;87.70;;;;;;5124951;28;20090;-56
2022/12/20 05:33:29;;;;;;;11.02;5.70;;;27.20;87.60;;;;;;5125616;28;20142;-57
2022/12/20 05:35:55;;;;;;;12.85;5.43;;;27.20;87.50;;;;;;5125025;28;20362;-56
2022/12/20 05:38:23;;;;;;;8.75;5.40;;;27.10;87.40;;;;;;5125101;28;20023;-54
2022/12/20 05:40:50;;;;;;;14.05;5.32;;;27.10;87.30;;;;;;5125054;28;20051;-56
2022/12/20 05:43:18;;;;;;;12.15;5.53;;;27.10;87.10;;;;;;5125060;28;20027;-55
2022/12/20 05:45:52;;;;;;;9.95;5.78;;;27.10;87.00;;;;;;5124826;28;20024;-55
2022/12/20 05:48:19;;;;;;;12.27;6.00;;;27.10;86.70;;;;;;5124901;28;20052;-60
2022/12/20 05:50:46;;;;;;;10.45;5.55;;;27.10;86.50;;;;;;5138886;27;20086;-55
2022/12/20 05:53:16;;;;;;;12.45;5.35;;;27.10;86.50;;;;;;5131421;27;20064;-57
2022/12/20 05:55:48;;;;;;;10.65;5.10;;;27.10;86.50;;;;;;5125378;28;20207;-55
2022/12/20 05:58:15;;;;;;;9.90;5.47;;;27.00;86.50;;;;;;5124117;28;20020;-55
2022/12/20 06:00:43;;;;;;;10.10;5.35;;;27.00;86.30;;;;;;5123220;28;20032;-55
2022/12/20 06:03:11;;;;;;;12.57;5.60;;;27.00;86.30;;;;;;5124408;28;20087;-56
2022/12/20 06:05:38;;;;;;;11.30;6.00;;;27.00;86.30;;;;;;5124973;28;20026;-56
2022/12/20 06:08:06;;;;;;;14.00;5.60;;;27.00;86.40;;;;;;5124716;28;20024;-55
2022/12/20 06:10:33;;;;;;;11.57;5.70;;;27.00;86.60;;;;;;5124611;28;20032;-57
2022/12/20 06:13:01;;;;;;;11.35;5.53;;;27.00;86.70;;;;;;5124802;28;20012;-55
2022/12/20 06:15:28;;;;;;;14.02;5.32;;;27.00;86.80;;;;;;5124547;28;20046;-55
2022/12/20 06:17:55;;;;;;;9.93;5.07;;;26.90;86.70;;;;;;5123985;28;20022;-56
2022/12/20 06:20:22;;;;;;;10.07;5.25;;;26.90;86.70;;;;;;5123109;28;20028;-55
2022/12/20 06:22:49;;;;;;;12.15;5.18;;;26.90;86.70;;;;;;5124442;28;20077;-54
2022/12/20 06:25:15;;;;;;;9.98;5.13;;;26.90;86.80;;;;;;5124461;28;20069;-57
2022/12/20 06:27:42;;;;;;;9.15;4.95;;;26.90;86.80;;;;;;5124604;28;20064;-55
2022/12/20 06:30:10;;;;;;;14.48;5.18;;;27.00;86.90;;;;;;5124480;28;20024;-56
2022/12/20 06:32:37;;;;;;;10.43;4.65;;;27.00;87.00;;;;;;5124407;28;20022;-55
2022/12/20 06:35:04;;;;;;;10.70;5.20;;;26.90;87.00;;;;;;5124150;28;20121;-57
2022/12/20 06:37:31;;;;;;;7.63;4.57;;;27.00;87.20;;;;;;5126748;27;20043;-55
2022/12/20 06:39:58;;;;;;;10.57;4.95;;;26.90;87.30;;;;;;5147053;27;20152;-57
2022/12/20 06:42:25;;;;;;;8.25;4.43;;;26.90;87.40;;;;;;5142376;27;20102;-55
2022/12/20 06:44:51;;;;;;;9.82;4.50;;;26.90;87.50;;;;;;5148769;27;20027;-58
2022/12/20 06:47:18;;;;;;;7.93;4.63;;;26.90;87.50;;;;;;5147154;27;20046;-56
2022/12/20 06:49:45;;;;;;;10.75;4.63;;;27.00;87.60;;;;;;5127937;28;20045;-56
2022/12/20 06:52:11;;;;;;;9.95;4.75;;;26.90;87.50;;;;;;5128113;28;20028;-57
2022/12/20 06:54:38;;;;;;;11.45;5.07;;;26.90;87.60;;;;;;5128304;28;20044;-57
2022/12/20 06:57:05;;;;;;;8.45;4.72;;;26.90;87.70;;;;;;5128248;28;20061;-57
2022/12/20 06:59:32;;;;;;;8.57;4.95;;;26.90;87.80;;;;;;5128131;28;20094;-57
2022/12/20 07:01:59;;;;;;;11.02;4.60;;;26.90;87.90;;;;;;5127187;28;20203;-56
2022/12/20 07:04:25;;;;;;;9.27;4.30;;;26.90;87.90;;;;;;5127662;28;20025;-59
2022/12/20 07:06:52;;;;;;;7.82;4.50;;;26.80;87.80;;;;;;5127744;28;20055;-57
2022/12/20 07:09:19;;;;;;;10.07;5.60;;;26.80;87.90;;;;;;5127712;28;20023;-58
2022/12/20 07:11:45;;;;;;;11.10;5.40;;;26.80;87.90;;;;;;5127860;28;20095;-57
2022/12/20 07:14:12;;;;;;;13.25;6.15;;;26.80;88.00;;;;;;5127642;28;20049;-55
2022/12/20 07:16:40;;;;;;;11.43;5.80;;;26.80;88.10;;;;;;5128100;28;20032;-55
2022/12/20 07:19:11;;;;;;;15.85;6.60;;;26.80;88.20;;;;;;5127908;28;20072;-54
2022/12/20 07:21:38;;;;;;;11.73;6.55;;;26.80;88.30;;;;;;5127275;28;20023;-54
2022/12/20 07:24:05;;;;;;;12.20;6.82;;;26.70;88.30;;;;;;5127660;28;20043;-55
2022/12/20 07:26:32;;;;;;;14.85;7.30;;;26.70;88.40;;;;;;5127585;28;20096;-55
2022/12/20 07:28:58;;;;;;;10.77;6.70;;;26.70;88.50;;;;;;5127153;28;20181;-53
2022/12/20 07:31:25;;;;;;;14.57;6.05;;;26.70;88.50;;;;;;5127344;28;20043;-53
2022/12/20 07:33:51;;;;;;;10.90;5.68;;;26.70;88.50;;;;;;5128395;27;20047;-56
2022/12/20 07:36:18;;;;;;;11.82;5.72;;;26.60;88.20;;;;;;5126587;27;20330;-55
2022/12/20 07:38:45;;;;;;;10.68;5.97;;;26.70;88.30;;;;;;5127428;28;20027;-56
2022/12/20 07:41:15;;;;;;;10.68;5.60;;;26.60;88.20;;;;;;5127459;28;20022;-56
2022/12/20 07:43:42;;;;;;;11.20;5.40;;;26.60;88.10;;;;;;5126802;28;20019;-56
2022/12/20 07:46:11;;;;;;;10.27;5.15;;;26.60;88.00;;;;;;5126502;28;20030;-57
2022/12/20 07:48:38;;;;;;;8.45;5.38;;;26.60;87.80;;;;;;5126900;28;20352;-56
2022/12/20 07:51:13;;;;;;;10.23;4.70;;;26.60;87.80;;;;;;5125735;28;20069;-54
2022/12/20 07:53:46;;;;;;;8.75;4.78;;;26.60;87.70;;;;;;5127279;28;20295;-57
2022/12/20 07:56:12;;;;;;;;;;;26.50;87.60;;;;;;5127268;28;20016;-52
2022/12/20 07:58:41;;;;;;;9.23;4.53;;;26.50;87.50;;;;;;5127440;28;19911;-57
2022/12/20 08:01:09;;;;;;;9.07;4.47;;;26.40;87.30;;;;;;5126128;28;20083;-57
2022/12/20 08:03:48;;;;;;;10.15;4.60;;;26.50;87.40;;;;;;5126278;28;20316;-52
2022/12/20 08:06:16;;;;;;;7.05;4.38;;;26.50;87.10;;;;;;5125941;28;20043;-54
2022/12/20 08:08:48;;;;;;;6.70;4.30;;;26.50;86.80;;;;;;5126343;28;20023;-56
2022/12/20 08:11:16;;;;;;;7.47;3.75;;;26.40;86.60;;;;;;5115940;28;20035;-59
2022/12/20 08:13:42;;;;;;;7.72;4.00;;;26.40;86.30;;;;;;5126038;28;20329;-59
2022/12/20 08:16:09;;;;;;;9.07;4.28;;;26.40;85.90;;;;;;5125979;28;20027;-55
2022/12/20 08:18:36;;;;;;;6.95;3.88;;;26.40;85.40;;;;;;5126023;28;20192;-56
2022/12/20 08:21:02;;;;;;;7.95;3.80;;;26.40;84.90;;;;;;5125136;28;20039;-57
2022/12/20 08:23:29;;;;;;;7.63;3.75;;;26.40;84.60;;;;;;5128530;27;20015;-57
2022/12/20 08:25:55;;;;;;;6.55;3.70;;;26.40;84.40;;;;;;5137455;27;20023;-55
2022/12/20 08:28:22;;;;;;;8.05;3.95;;;26.40;84.30;;;;;;5126573;28;20023;-55
2022/12/20 08:30:49;;;;;;;6.20;4.03;;;26.40;84.00;;;;;;5126068;28;20342;-59
2022/12/20 08:33:16;;;;;;;5.50;3.60;;;26.40;83.70;;;;;;5125616;28;20027;-56
2022/12/20 08:35:42;;;;;;;9.00;3.95;;;26.40;83.30;;;;;;5126029;28;20040;-57
2022/12/20 08:38:09;;;;;;;7.70;3.80;;;26.40;82.70;;;;;;5126281;28;20018;-58
2022/12/20 08:40:35;;;;;;;7.40;4.13;;;26.40;82.30;;;;;;5126023;27;20031;-56
2022/12/20 08:43:02;;;;;;;7.07;3.40;;;26.40;81.80;;;;;;5133815;27;20322;-57
2022/12/20 08:45:28;;;;;;;5.95;3.25;;;26.40;81.50;;;;;;5130291;27;20035;-56
2022/12/20 08:47:55;;;;;;;5.85;3.55;;;26.40;81.10;;;;;;5125624;28;20114;-57
2022/12/20 08:50:21;;;;;;;6.90;3.58;;;26.30;80.60;;;;;;5125807;28;20088;-57
2022/12/20 08:52:48;;;;;;;5.72;3.10;;;26.40;80.20;;;;;;5126028;28;20039;-56
2022/12/20 08:55:14;;;;;;;6.82;3.10;;;26.30;79.40;;;;;;5125579;28;20056;-58
2022/12/20 08:57:41;;;;;;;9.15;3.40;;;26.30;79.60;;;;;;5125857;28;20016;-57
2022/12/20 09:00:08;;;;;;;7.72;3.97;;;26.30;79.70;;;;;;5128013;27;20058;-57
2022/12/20 09:02:36;;;;;;;10.35;3.85;;;26.30;79.80;;;;;;5125317;28;20023;-56
2022/12/20 09:05:04;;;;;;;6.78;3.25;;;26.30;79.80;;;;;;5125348;28;20100;-57
2022/12/20 09:07:30;;;;;;;8.07;3.28;;;26.30;79.70;;;;;;5125750;28;20181;-59
2022/12/20 09:09:57;;;;;;;7.90;3.40;;;26.30;79.40;;;;;;5125109;28;20020;-57
2022/12/20 09:12:23;;;;;;;6.15;3.17;;;26.30;79.40;;;;;;5125299;28;20034;-58
2022/12/20 09:14:50;;;;;;;9.13;3.45;;;26.30;79.10;;;;;;5125327;28;20256;-56
2022/12/20 09:17:16;;;;;;;5.43;3.08;;;26.30;78.80;;;;;;5125204;28;20026;-56
2022/12/20 09:19:43;;;;;;;6.68;3.35;;;26.30;78.40;;;;;;5125426;28;20324;-56
2022/12/20 09:22:09;;;;;;;5.43;3.00;;;26.30;78.10;;;;;;5125599;28;20024;-58
2022/12/20 09:24:44;;;;;;;8.02;3.47;;;26.30;78.10;;;;;;5125070;28;20098;-56
2022/12/20 09:27:11;;;;;;;4.60;3.05;;;26.30;78.20;;;;;;5124352;28;20019;-56
2022/12/20 09:29:38;;;;;;;6.20;3.22;;;26.30;77.70;;;;;;5123954;28;20035;-54
2022/12/20 09:32:04;;;;;;;8.60;3.58;;;26.30;77.60;;;;;;5117811;28;20054;-56
2022/12/20 09:34:31;;;;;;;6.50;3.25;;;26.30;77.50;;;;;;5124321;28;20020;-56
2022/12/20 09:36:58;;;;;;;4.63;3.25;;;26.30;77.40;;;;;;5124343;28;20310;-58
2022/12/20 09:39:24;;;;;;;4.95;3.30;;;26.30;78.00;;;;;;5123814;28;20024;-56
2022/12/20 09:41:51;;;;;;;9.48;3.20;;;26.30;77.50;;;;;;5124091;27;20024;-58
2022/12/20 09:44:23;;;;;;;7.38;3.65;;;26.30;77.40;;;;;;5124701;28;20027;-58
2022/12/20 09:47:09;;;;;;;7.30;3.67;;;26.30;77.40;;;;;;5123753;28;20027;-56
2022/12/20 09:49:40;;;;;;;9.93;3.70;;;26.30;77.50;;;;;;5123902;28;20089;-57
2022/12/20 09:52:13;;;;;;;7.72;3.58;;;26.30;77.60;;;;;;5124497;28;20030;-56
2022/12/20 09:54:39;;;;;;;8.32;3.42;;;26.30;77.80;;;;;;5123421;28;20332;-58
2022/12/20 09:57:26;;;;;;;7.70;3.58;;;26.30;77.80;;;;;;5123600;28;20020;-59
2022/12/20 09:59:57;;;;;;;7.95;3.35;;;26.30;77.80;;;;;;5064472;28;20039;-57
2022/12/20 10:02:25;;;;;;;8.48;3.47;;;26.30;78.50;;;;;;5123799;28;20259;-57
2022/12/20 10:04:54;;;;;;;8.35;3.85;;;26.30;78.00;;;;;;5123810;28;20049;-56
2022/12/20 10:07:35;;;;;;;7.13;3.50;;;26.30;77.90;;;;;;5123459;28;20049;-57
2022/12/20 10:10:02;;;;;;;9.13;4.22;;;26.20;77.60;;;;;;5124830;28;20028;-54
2022/12/20 10:12:36;;;;;;;6.57;4.15;;;26.20;77.50;;;;;;5124207;28;20397;-55
2022/12/20 10:15:27;;;;;;;9.63;4.13;;;26.20;77.40;;;;;;5124488;28;20015;-54
2022/12/20 10:18:18;;;;;;;13.38;4.55;;;26.20;77.40;;;;;;5124877;28;20117;-55
2022/12/20 10:21:17;;;;;;;8.98;3.83;;;26.20;77.20;;;;;;5124313;28;20224;-54
2022/12/20 10:24:03;;;;;;;9.10;3.92;;;26.20;77.10;;;;;;5069868;28;20351;-56
2022/12/20 10:26:32;;;;;;;5.38;3.42;;;26.20;77.00;;;;;;5123139;28;20027;-56
2022/12/20 10:28:59;;;;;;;11.00;3.78;;;26.20;77.00;;;;;;5122369;28;20035;-56
2022/12/20 10:31:27;;;;;;;8.52;3.83;;;26.20;76.80;;;;;;5123983;28;20050;-57
2022/12/20 10:33:54;;;;;;;7.82;3.35;;;26.20;76.60;;;;;;5124707;28;20020;-55
2022/12/20 10:36:30;;;;;;;9.38;3.50;;;26.20;76.50;;;;;;5124307;28;20020;-56
2022/12/20 10:39:02;;;;;;;8.32;4.20;;;26.20;76.30;;;;;;5124632;28;20038;-56
2022/12/20 10:41:29;;;;;;;;;;;26.20;76.40;;;;;;5122872;28;20072;-55
2022/12/20 10:44:14;;;;;;;8.93;3.75;;;26.20;76.10;;;;;;5124563;28;20087;-56
2022/12/20 10:46:58;;;;;;;8.90;3.70;;;26.20;76.00;;;;;;5122911;28;20073;-55
2022/12/20 10:49:39;;;;;;;8.77;3.15;;;26.20;75.80;;;;;;5123761;28;20075;-55
2022/12/20 10:52:09;;;;;;;8.18;3.60;;;26.20;75.70;;;;;;5121519;28;20016;-58
2022/12/20 10:54:40;;;;;;;10.13;3.58;;;26.20;75.60;;;;;;5123454;28;20038;-56
2022/12/20 10:57:21;;;;;;;8.48;3.85;;;26.20;75.60;;;;;;5120156;28;20023;-56
2022/12/20 11:00:04;;;;;;;11.27;4.18;;;26.20;75.50;;;;;;5124228;28;20067;-58
2022/12/20 11:02:37;;;;;;;9.27;3.88;;;26.20;75.40;;;;;;5123938;28;20032;-54
2022/12/20 11:05:15;;;;;;;10.93;3.40;;;26.20;75.40;;;;;;5121357;28;20059;-56
2022/12/20 11:07:56;;;;;;;12.93;3.75;;;26.10;75.50;;;;;;5124311;28;20028;-55
2022/12/20 11:10:25;;;;;;;14.80;3.83;;;26.10;75.40;;;;;;5108898;28;20183;-56
2022/12/20 11:13:03;;;;;;;10.00;3.90;;;26.10;75.40;;;;;;5103818;28;20052;-57
2022/12/20 11:15:35;;;;;;;11.30;4.18;;;26.10;75.70;;;;;;5103507;28;20047;-54
2022/12/20 11:18:14;;;;;;;16.02;4.15;;;26.10;75.90;;;;;;5111729;28;20289;-54
2022/12/20 11:20:59;;;;;;;21.45;4.40;;;26.10;76.10;;;;;;5107460;28;20028;-52
2022/12/20 11:23:41;;;;;;;25.80;4.63;;;26.10;75.80;;;;;;5112943;28;20300;-50
2022/12/20 11:26:19;;;;;;;16.77;4.40;;;26.10;76.00;;;;;;5107356;28;20161;-54
2022/12/20 11:29:10;;;;;;;12.43;4.10;;;26.10;76.00;;;;;;5119707;28;20027;-54
2022/12/20 11:31:48;;;;;;;16.30;4.22;;;26.20;76.00;;;;;;5128026;28;20395;-55
2022/12/20 11:34:39;;;;;;;10.43;3.88;;;26.10;75.80;;;;;;5127370;28;20056;-56
2022/12/20 11:37:23;;;;;;;13.27;4.28;;;26.20;75.70;;;;;;5126685;28;20094;-53
2022/12/20 11:40:20;;;;;;;14.00;3.83;;;26.20;75.70;;;;;;5120303;28;20035;-56
2022/12/20 11:43:05;;;;;;;15.40;3.92;;;26.20;75.70;;;;;;5125482;28;20032;-55
2022/12/20 11:45:54;;;;;;;13.82;4.05;;;26.20;75.60;;;;;;5125506;28;20218;-56
2022/12/20 11:48:38;;;;;;;11.63;3.80;;;26.20;75.60;;;;;;5125482;28;20048;-57
2022/12/20 11:51:44;;;;;;;12.80;4.03;;;26.20;75.60;;;;;;5107214;28;20106;-54
2022/12/20 11:54:19;;;;;;;15.75;4.38;;;26.20;75.60;;;;;;5080742;28;20364;-55
2022/12/20 11:56:50;;;;;;;15.68;4.70;;;26.30;75.70;;;;;;5127096;28;20217;-56
2022/12/20 11:59:41;;;;;;;13.10;4.40;;;26.30;75.70;;;;;;5125917;28;20332;-58
2022/12/20 12:02:30;;;;;;;14.38;4.60;;;26.30;75.70;;;;;;5114442;28;20043;-56
2022/12/20 12:05:02;;;;;;;16.70;4.22;;;26.30;75.90;;;;;;5121274;28;20076;-53
2022/12/20 12:07:32;;;;;;;16.05;5.00;;;26.30;75.90;;;;;;5082692;28;20031;-55
2022/12/20 12:10:12;;;;;;;18.98;4.57;;;26.30;76.00;;;;;;5112918;28;20032;-55
2022/12/20 12:12:47;;;;;;;20.55;5.35;;;26.40;76.10;;;;;;5106354;28;20031;-52
2022/12/20 12:15:47;;;;;;;17.27;4.82;;;26.40;76.50;;;;;;5108922;28;20031;-56
2022/12/20 12:18:16;;;;;;;13.35;4.78;;;26.40;77.10;;;;;;5093233;28;20118;-57
2022/12/20 12:21:14;;;;;;;14.05;4.22;;;26.50;77.70;;;;;;5126706;28;20054;-55
2022/12/20 12:24:05;;;;;;;21.10;4.97;;;26.50;78.20;;;;;;5126895;28;20027;-54
2022/12/20 12:26:34;;;;;;;18.27;4.90;;;26.50;78.70;;;;;;5108366;28;20106;-57
2022/12/20 12:29:11;;;;;;;23.73;5.25;;;26.50;79.20;;;;;;5126285;28;20033;-57
2022/12/20 12:31:48;;;;;;;22.02;5.50;;;26.40;79.70;;;;;;5121188;28;20087;-56
2022/12/20 12:34:14;;;;;;;19.27;4.95;;;26.50;80.10;;;;;;5104671;28;20031;-52
2022/12/20 12:37:20;;;;;;;22.98;5.15;;;26.50;80.10;;;;;;5120472;28;20023;-55
2022/12/20 12:40:28;;;;;;;21.23;5.28;;;26.50;80.40;;;;;;5105577;28;20030;-55
2022/12/20 12:43:07;;;;;;;26.80;5.85;;;26.50;80.30;;;;;;5105917;28;20043;-56
2022/12/20 12:45:46;;;;;;;19.60;5.50;;;26.50;80.30;;;;;;5105615;28;20304;-53
2022/12/20 12:49:05;;;;;;;15.57;5.32;;;26.60;80.30;;;;;;5108188;28;20131;-57
2022/12/20 12:51:37;;;;;;;19.65;5.68;;;26.60;80.30;;;;;;5074280;28;20036;-56
2022/12/20 12:54:15;;;;;;;15.95;5.10;;;26.60;79.70;;;;;;5105406;28;20040;-55
2022/12/20 12:57:19;;;;;;;14.60;4.88;;;26.60;79.50;;;;;;5105594;28;20220;-63
2022/12/20 13:00:48;;;;;;;13.98;4.97;;;26.70;79.50;;;;;;5063727;28;20104;-58
2022/12/20 13:03:34;;;;;;;10.27;4.80;;;26.70;79.10;;;;;;5066928;28;20021;-55
2022/12/20 13:06:27;;;;;;;14.07;4.30;;;26.70;79.10;;;;;;5082863;28;20330;-53
2022/12/20 13:08:59;;;;;;;16.75;4.00;;;26.70;78.70;;;;;;5082777;28;20025;-57
2022/12/20 13:11:30;;;;;;;;;;;26.80;78.80;;;;;;5083440;28;20032;-56
2022/12/20 13:14:22;;;;;;;12.50;3.97;;;26.80;78.50;;;;;;5072150;28;19915;-55